Terminal Aerodrome Forecast
Issued by NWS

Home | Current Version | Previous Version | Text Only | Print | Product List | Glossary On
Versions: 1 2 3 4 5 6 7 8 9 10 11 12 13 14 15 16 17 18 19 20 21
000
FTUS46 KLOX 232300
TAFOXR
TAF
KOXR 232338Z 2400/2424 29014KT P6SM SKC
     FM240400 VRB03KT P6SM SKC
     FM241000 VRB03KT P6SM OVC005
     FM241500 03003KT 3SM BR OVC004
     FM241700 VRB03KT 6SM HZ SCT008
     FM241800 27007KT P6SM SKC
     FM242100 27011KT P6SM SKC=

USA.gov is the U.S. government's official web portal to all federal, state and local government web resources and services.